Time;durP1;ratioP1;P1;durP2;ratioP2;P2;SDS_P1;SDS_P2;PMS_P1;PMS_P2;Temp;Humidity;BMP_temperature;BMP_pressure;BME280_temperature;BME280_humidity;BME280_pressure;Samples;Min_cycle;Max_cycle;Signal;HPM_P1;HPM_P2
2022/08/10 00:01:37;;;;;;;2.58;1.70;;;19.70;56.20;;;;;;5011154;28;20061;-64
2022/08/10 00:04:03;;;;;;;1.77;1.50;;;19.70;56.60;;;;;;5004671;28;20038;-65
2022/08/10 00:06:29;;;;;;;2.08;1.98;;;19.60;56.60;;;;;;5004529;28;20037;-64
2022/08/10 00:08:54;;;;;;;1.80;1.70;;;19.60;56.80;;;;;;5006889;28;20041;-62
2022/08/10 00:11:20;;;;;;;2.13;1.80;;;19.60;56.80;;;;;;5000874;28;20073;-64
2022/08/10 00:13:46;;;;;;;4.50;1.80;;;19.50;56.90;;;;;;5004003;28;20033;-65
2022/08/10 00:16:12;;;;;;;1.93;1.83;;;19.50;57.00;;;;;;4969720;28;1096251;-64
2022/08/10 00:18:38;;;;;;;2.42;1.83;;;19.50;57.00;;;;;;5003285;28;20033;-64
2022/08/10 00:21:06;;;;;;;3.28;1.60;;;19.50;57.10;;;;;;5006252;28;20036;-64
2022/08/10 00:23:32;;;;;;;2.33;1.67;;;19.50;57.10;;;;;;5004292;28;20056;-64
2022/08/10 00:25:58;;;;;;;3.13;1.90;;;19.50;57.00;;;;;;5003708;28;20040;-65
2022/08/10 00:28:24;;;;;;;2.90;1.90;;;19.40;57.00;;;;;;5006264;28;20042;-64
2022/08/10 00:30:50;;;;;;;2.17;1.90;;;19.40;57.10;;;;;;5006573;28;20076;-63
2022/08/10 00:33:16;;;;;;;3.78;2.00;;;19.30;57.00;;;;;;5006765;28;20456;-61
2022/08/10 00:35:41;;;;;;;2.10;1.90;;;19.30;57.20;;;;;;5003860;28;20505;-63
2022/08/10 00:38:07;;;;;;;1.92;1.70;;;19.20;57.50;;;;;;4999944;28;20559;-64
2022/08/10 00:40:32;;;;;;;2.20;2.00;;;19.20;57.60;;;;;;5005276;28;20545;-61
2022/08/10 00:42:58;;;;;;;3.00;1.65;;;19.10;57.60;;;;;;5003917;28;20038;-62
2022/08/10 00:45:24;;;;;;;2.25;1.85;;;19.00;57.80;;;;;;5006663;28;20038;-64
2022/08/10 00:47:49;;;;;;;1.88;1.73;;;18.90;58.00;;;;;;5013036;28;20030;-63
2022/08/10 00:50:16;;;;;;;2.40;2.00;;;18.90;58.00;;;;;;5006052;28;20034;-63
2022/08/10 00:52:43;;;;;;;2.60;1.70;;;18.90;58.20;;;;;;5000527;28;20066;-64
2022/08/10 00:55:08;;;;;;;2.28;2.00;;;18.80;58.50;;;;;;5002139;28;20064;-64
2022/08/10 00:57:34;;;;;;;2.35;1.80;;;18.80;58.50;;;;;;5001500;28;20034;-63
2022/08/10 01:00:00;;;;;;;2.28;1.88;;;18.80;58.60;;;;;;5004658;28;20415;-65
2022/08/10 01:02:28;;;;;;;4.20;1.70;;;18.80;58.60;;;;;;5004754;28;20045;-64
2022/08/10 01:04:54;;;;;;;2.55;2.03;;;18.70;58.50;;;;;;5001809;28;20042;-65
2022/08/10 01:07:31;;;;;;;1.70;1.60;;;18.70;58.50;;;;;;5001860;28;20122;-64
2022/08/10 01:10:16;;;;;;;2.30;2.08;;;18.70;59.40;;;;;;5003092;28;20037;-65
2022/08/10 01:13:13;;;;;;;3.27;2.40;;;18.60;59.30;;;;;;5002157;28;20033;-64
2022/08/10 01:15:50;;;;;;;2.75;2.05;;;18.60;59.20;;;;;;5004543;28;20030;-64
2022/08/10 01:18:22;;;;;;;3.75;2.10;;;18.60;59.10;;;;;;5006539;28;20095;-64
2022/08/10 01:21:20;;;;;;;2.33;2.03;;;18.50;59.00;;;;;;4986772;28;20064;-64
2022/08/10 01:24:10;;;;;;;2.55;2.00;;;18.50;59.60;;;;;;4982911;28;20196;-64
2022/08/10 01:27:26;;;;;;;3.10;1.90;;;18.50;59.30;;;;;;5002207;28;20064;-63
2022/08/10 01:29:52;;;;;;;2.17;1.98;;;18.50;59.80;;;;;;4983582;28;20029;-61
2022/08/10 01:32:26;;;;;;;2.10;1.90;;;18.40;59.10;;;;;;5000895;28;20037;-61
2022/08/10 01:35:03;;;;;;;2.03;1.70;;;18.40;59.50;;;;;;4994585;28;20121;-63
2022/08/10 01:37:33;;;;;;;2.67;2.47;;;18.50;59.40;;;;;;5001226;28;20047;-63
2022/08/10 01:40:02;;;;;;;2.30;1.88;;;18.50;59.20;;;;;;5003105;28;20038;-62
2022/08/10 01:42:31;;;;;;;2.30;2.10;;;18.50;59.40;;;;;;5001003;28;20030;-63
2022/08/10 01:45:02;;;;;;;2.00;1.90;;;18.50;59.30;;;;;;5001322;28;20085;-63
2022/08/10 01:50:34;;;;;;;1.90;1.80;;;18.50;59.40;;;;;;5004066;28;20044;-62
2022/08/10 01:53:12;;;;;;;2.10;2.00;;;18.50;59.60;;;;;;5004518;28;20069;-63
2022/08/10 01:55:39;;;;;;;2.95;2.10;;;18.50;59.50;;;;;;5002783;28;20041;-63
2022/08/10 01:58:07;;;;;;;2.10;2.00;;;18.50;59.10;;;;;;5000250;28;20395;-63
2022/08/10 02:00:37;;;;;;;4.00;1.80;;;18.50;59.20;;;;;;4999450;28;20048;-64
2022/08/10 02:03:05;;;;;;;2.33;2.13;;;18.50;59.40;;;;;;5003452;28;20425;-64
2022/08/10 02:05:33;;;;;;;4.53;2.40;;;18.50;59.30;;;;;;5008172;28;20084;-62
2022/08/10 02:08:01;;;;;;;2.88;1.80;;;18.50;59.30;;;;;;5010313;28;20036;-61
2022/08/10 02:10:29;;;;;;;3.25;2.03;;;18.40;59.30;;;;;;5007806;28;20022;-63
2022/08/10 02:12:57;;;;;;;2.00;1.88;;;18.40;59.30;;;;;;5008761;28;20026;-63
2022/08/10 02:15:26;;;;;;;2.22;2.03;;;18.40;59.30;;;;;;5010474;28;20038;-63
2022/08/10 02:17:56;;;;;;;2.55;2.35;;;18.40;59.40;;;;;;5011430;28;20176;-63
2022/08/10 02:20:26;;;;;;;2.22;1.83;;;18.40;59.40;;;;;;5011315;28;20104;-64
2022/08/10 02:22:56;;;;;;;2.22;2.10;;;18.40;59.50;;;;;;5008460;28;20041;-63
2022/08/10 02:25:24;;;;;;;2.40;2.25;;;18.30;59.70;;;;;;5010370;28;20058;-63
2022/08/10 02:27:52;;;;;;;4.13;1.85;;;18.40;59.60;;;;;;5004037;28;20270;-64
2022/08/10 02:30:19;;;;;;;2.92;2.03;;;18.30;59.60;;;;;;5010463;28;20034;-64
2022/08/10 02:32:47;;;;;;;3.08;1.98;;;18.30;59.60;;;;;;5010509;28;20057;-63
2022/08/10 02:35:13;;;;;;;2.47;2.28;;;18.30;59.80;;;;;;5011785;28;20026;-65
2022/08/10 02:37:42;;;;;;;2.40;2.20;;;18.30;59.70;;;;;;5010032;28;20045;-64
2022/08/10 02:40:09;;;;;;;2.13;2.00;;;18.20;59.80;;;;;;5009611;28;20038;-64
2022/08/10 02:42:58;;;;;;;2.22;2.05;;;18.20;59.80;;;;;;5011655;28;20550;-64
2022/08/10 02:45:45;;;;;;;5.63;2.42;;;18.20;60.10;;;;;;5014156;28;20042;-64
2022/08/10 02:48:20;;;;;;;2.40;2.20;;;18.20;60.40;;;;;;5014238;28;20504;-63
2022/08/10 02:50:53;;;;;;;3.53;2.13;;;18.20;61.20;;;;;;5010156;28;20073;-62
2022/08/10 02:53:31;;;;;;;2.30;2.20;;;18.20;60.00;;;;;;5009119;28;20037;-64
2022/08/10 02:56:23;;;;;;;3.25;2.20;;;18.10;60.50;;;;;;5013585;28;20048;-61
2022/08/10 02:58:59;;;;;;;2.65;2.25;;;18.10;60.60;;;;;;5014939;28;20040;-64
2022/08/10 03:01:31;;;;;;;3.75;2.30;;;18.10;60.50;;;;;;5013143;28;20325;-64
2022/08/10 03:04:13;;;;;;;3.17;2.35;;;18.10;60.50;;;;;;5013476;28;20505;-63
2022/08/10 03:06:43;;;;;;;2.58;2.38;;;18.10;60.60;;;;;;5009612;28;20072;-63
2022/08/10 03:09:12;;;;;;;2.05;1.95;;;18.10;60.30;;;;;;5012577;28;20634;-63
2022/08/10 03:11:40;;;;;;;2.67;2.30;;;18.10;60.20;;;;;;5011323;28;20046;-63
2022/08/10 03:14:08;;;;;;;2.40;2.20;;;18.10;60.30;;;;;;5014599;28;20083;-63
2022/08/10 03:16:35;;;;;;;2.50;2.30;;;18.00;60.50;;;;;;5016774;28;20049;-64
2022/08/10 03:19:04;;;;;;;2.50;2.20;;;18.00;60.50;;;;;;5016912;28;20504;-63
2022/08/10 03:21:31;;;;;;;3.47;2.50;;;18.00;60.80;;;;;;5017219;28;20044;-65
2022/08/10 03:24:01;;;;;;;2.58;2.38;;;18.00;60.60;;;;;;5018205;28;20036;-65
2022/08/10 03:26:30;;;;;;;2.42;2.22;;;18.00;61.70;;;;;;5011319;28;20116;-63
2022/08/10 03:28:58;;;;;;;2.58;2.38;;;18.00;60.60;;;;;;5015945;28;20033;-64
2022/08/10 03:31:26;;;;;;;2.70;2.50;;;18.00;60.50;;;;;;5015621;28;20045;-64
2022/08/10 03:33:53;;;;;;;3.90;2.38;;;18.00;61.00;;;;;;5017419;28;20037;-64
2022/08/10 03:36:19;;;;;;;2.85;2.58;;;18.00;60.90;;;;;;5013082;28;20038;-61
2022/08/10 03:38:47;;;;;;;3.88;2.58;;;17.90;60.80;;;;;;5013711;28;20088;-61
2022/08/10 03:41:15;;;;;;;2.92;2.72;;;17.90;60.80;;;;;;5011903;28;20126;-63
2022/08/10 03:43:43;;;;;;;2.40;2.20;;;17.90;61.00;;;;;;5013184;28;20578;-63
2022/08/10 03:46:12;;;;;;;2.70;2.50;;;17.90;61.10;;;;;;5013496;28;20120;-61
2022/08/10 03:48:39;;;;;;;2.70;2.50;;;17.80;61.20;;;;;;5012003;28;20030;-63
2022/08/10 03:51:07;;;;;;;3.10;2.90;;;17.80;61.20;;;;;;5013850;28;20034;-62
2022/08/10 03:53:34;;;;;;;3.35;2.90;;;17.70;61.30;;;;;;5012090;28;20037;-63
2022/08/10 03:56:00;;;;;;;3.28;2.97;;;17.70;61.30;;;;;;5012511;28;20124;-63
2022/08/10 03:58:26;;;;;;;2.80;2.60;;;17.70;61.50;;;;;;5011708;28;20038;-62
2022/08/10 04:00:52;;;;;;;2.85;2.65;;;17.70;61.50;;;;;;5011732;28;20091;-63
2022/08/10 04:03:18;;;;;;;2.70;2.50;;;17.70;61.50;;;;;;5012260;28;20034;-64
2022/08/10 04:05:44;;;;;;;2.47;2.35;;;17.60;61.40;;;;;;5010058;28;20053;-63
2022/08/10 04:08:09;;;;;;;2.75;2.55;;;17.60;61.30;;;;;;5010091;28;20034;-63
2022/08/10 04:10:35;;;;;;;2.67;2.28;;;17.60;61.40;;;;;;5008067;28;20022;-64
2022/08/10 04:13:01;;;;;;;3.28;2.63;;;17.60;61.50;;;;;;5011377;28;20039;-64
2022/08/10 04:15:26;;;;;;;2.47;2.28;;;17.50;61.50;;;;;;5012659;28;20034;-64
2022/08/10 04:17:52;;;;;;;2.80;2.50;;;17.60;61.70;;;;;;5013318;28;20490;-63
2022/08/10 04:20:24;;;;;;;2.70;2.50;;;17.50;61.70;;;;;;5010895;28;20458;-62
2022/08/10 04:22:52;;;;;;;3.65;2.53;;;17.50;62.00;;;;;;5010910;28;20132;-64
2022/08/10 04:25:19;;;;;;;2.92;2.72;;;17.50;62.10;;;;;;5013035;28;20047;-63
2022/08/10 04:27:46;;;;;;;3.72;2.45;;;17.40;62.20;;;;;;5012835;28;20066;-64
2022/08/10 04:30:12;;;;;;;2.67;2.47;;;17.40;62.20;;;;;;5010480;28;20512;-63
2022/08/10 04:32:40;;;;;;;2.50;2.38;;;17.40;62.40;;;;;;5012812;28;20049;-62
2022/08/10 04:35:09;;;;;;;2.33;2.22;;;17.40;62.60;;;;;;5015744;28;20407;-64
2022/08/10 04:37:36;;;;;;;2.40;2.20;;;17.40;62.60;;;;;;5012699;28;20038;-63
2022/08/10 04:40:03;;;;;;;3.40;2.83;;;17.40;62.70;;;;;;5012851;28;20041;-63
2022/08/10 04:42:29;;;;;;;2.78;2.58;;;17.40;62.90;;;;;;5008998;28;20030;-63
2022/08/10 04:44:55;;;;;;;3.03;2.83;;;17.40;63.00;;;;;;5013672;28;20173;-61
2022/08/10 04:47:21;;;;;;;3.75;2.50;;;17.40;63.10;;;;;;5012172;28;20042;-64
2022/08/10 04:49:46;;;;;;;3.35;2.72;;;17.40;63.10;;;;;;5013975;28;20045;-64
2022/08/10 04:52:12;;;;;;;3.17;2.78;;;17.40;63.20;;;;;;5013435;28;20034;-64
2022/08/10 04:54:38;;;;;;;3.00;2.67;;;17.40;63.30;;;;;;5011149;28;20404;-63
2022/08/10 04:57:04;;;;;;;2.60;2.45;;;17.40;63.30;;;;;;5009651;28;20030;-64
2022/08/10 04:59:29;;;;;;;3.00;2.65;;;17.30;63.20;;;;;;5010773;28;20048;-63
2022/08/10 05:01:55;;;;;;;2.65;2.45;;;17.40;63.40;;;;;;5015451;28;20238;-62
2022/08/10 05:04:21;;;;;;;2.92;2.47;;;17.30;63.60;;;;;;5015845;28;20045;-63
2022/08/10 05:06:46;;;;;;;4.13;2.50;;;17.40;63.70;;;;;;5010415;28;20030;-64
2022/08/10 05:09:12;;;;;;;4.60;2.75;;;17.30;63.60;;;;;;5008392;28;20129;-64
2022/08/10 05:11:38;;;;;;;5.22;2.65;;;17.40;63.90;;;;;;5002002;28;20037;-63
2022/08/10 05:14:03;;;;;;;3.03;2.50;;;17.40;63.90;;;;;;5003141;28;20048;-62
2022/08/10 05:16:29;;;;;;;3.13;2.92;;;17.40;63.80;;;;;;5001669;28;20053;-64
2022/08/10 05:18:54;;;;;;;5.22;2.40;;;17.40;64.00;;;;;;5000470;28;20062;-64
2022/08/10 05:21:20;;;;;;;4.65;2.83;;;17.30;64.00;;;;;;4991481;28;20176;-63
2022/08/10 05:23:45;;;;;;;4.20;3.13;;;17.40;64.20;;;;;;5003724;28;20034;-62
2022/08/10 05:26:11;;;;;;;3.00;2.80;;;17.40;64.10;;;;;;5006569;28;20037;-63
2022/08/10 05:28:36;;;;;;;2.85;2.70;;;17.40;64.20;;;;;;5002738;28;20037;-63
2022/08/10 05:31:02;;;;;;;2.75;2.55;;;17.40;64.30;;;;;;5004618;28;20057;-62
2022/08/10 05:33:28;;;;;;;2.88;2.67;;;17.40;65.30;;;;;;5005035;28;20033;-63
2022/08/10 05:35:55;;;;;;;3.10;2.80;;;17.50;64.70;;;;;;5006351;28;20087;-63
2022/08/10 05:38:23;;;;;;;3.33;2.60;;;17.50;65.00;;;;;;5002908;28;20042;-63
2022/08/10 05:40:49;;;;;;;2.80;2.60;;;17.50;64.80;;;;;;5002181;28;20085;-64
2022/08/10 05:43:20;;;;;;;3.00;2.45;;;17.60;64.60;;;;;;5002534;28;20441;-64
2022/08/10 05:45:47;;;;;;;2.85;2.60;;;17.60;64.70;;;;;;5002009;28;20121;-63
2022/08/10 05:48:13;;;;;;;2.83;2.40;;;17.70;64.70;;;;;;5004388;28;20073;-65
2022/08/10 05:50:38;;;;;;;3.30;2.33;;;17.70;64.60;;;;;;5002754;28;20406;-64
2022/08/10 05:53:04;;;;;;;4.50;2.72;;;17.70;64.50;;;;;;5001871;28;20033;-63
2022/08/10 05:55:31;;;;;;;3.03;2.70;;;17.80;64.70;;;;;;5008764;28;20448;-64
2022/08/10 05:57:58;;;;;;;3.67;3.35;;;17.90;64.90;;;;;;5005891;28;20042;-63
2022/08/10 06:00:25;;;;;;;4.35;2.72;;;17.90;64.80;;;;;;5001106;28;21371;-62
2022/08/10 06:02:56;;;;;;;3.17;2.55;;;18.00;65.60;;;;;;5002073;28;20033;-64
2022/08/10 06:05:22;;;;;;;2.67;2.45;;;18.00;65.00;;;;;;5006981;28;20083;-63
2022/08/10 06:07:51;;;;;;;2.65;2.45;;;18.10;64.70;;;;;;5004148;28;20156;-63
2022/08/10 06:10:18;;;;;;;3.75;2.40;;;18.20;64.60;;;;;;5008943;28;20429;-61
2022/08/10 06:12:47;;;;;;;6.78;2.55;;;18.20;64.50;;;;;;4997571;28;20036;-62
2022/08/10 06:15:16;;;;;;;2.33;2.13;;;18.30;64.00;;;;;;5002217;28;20038;-63
2022/08/10 06:17:41;;;;;;;2.22;2.10;;;18.40;63.80;;;;;;5001480;28;20461;-63
2022/08/10 06:20:08;;;;;;;2.22;2.13;;;18.50;63.90;;;;;;5007774;28;20509;-63
2022/08/10 06:22:34;;;;;;;2.00;1.90;;;18.60;63.60;;;;;;4997990;28;20040;-63
2022/08/10 06:25:01;;;;;;;2.78;2.00;;;18.60;63.30;;;;;;5002377;28;20071;-63
2022/08/10 06:27:27;;;;;;;2.63;2.25;;;18.70;63.30;;;;;;5008106;28;20048;-61
2022/08/10 06:29:54;;;;;;;2.13;2.03;;;18.80;62.90;;;;;;5000148;28;20030;-64
2022/08/10 06:32:24;;;;;;;2.00;1.90;;;18.90;62.70;;;;;;5005166;28;20034;-64
2022/08/10 06:34:54;;;;;;;3.47;1.90;;;19.00;62.90;;;;;;5004231;28;20030;-64
2022/08/10 06:37:24;;;;;;;2.10;1.98;;;19.10;62.60;;;;;;5003635;28;20096;-63
2022/08/10 06:39:50;;;;;;;2.63;2.00;;;19.10;62.10;;;;;;5003694;28;20025;-63
2022/08/10 06:42:28;;;;;;;2.63;1.80;;;19.20;61.90;;;;;;4999557;28;20050;-63
2022/08/10 06:44:55;;;;;;;2.72;1.90;;;19.30;61.80;;;;;;5002931;28;20433;-63
2022/08/10 06:47:27;;;;;;;2.08;1.70;;;19.40;61.40;;;;;;5008431;28;20034;-64
2022/08/10 06:49:57;;;;;;;4.15;1.67;;;19.40;61.10;;;;;;5008516;28;20091;-64
2022/08/10 06:52:24;;;;;;;2.05;1.80;;;19.50;60.80;;;;;;5009959;28;20548;-62
2022/08/10 06:54:54;;;;;;;2.75;1.55;;;19.60;60.60;;;;;;4982012;28;20155;-63
2022/08/10 06:57:23;;;;;;;2.20;1.58;;;19.70;60.50;;;;;;4989058;28;20069;-62
2022/08/10 06:59:51;;;;;;;1.60;1.50;;;19.80;61.10;;;;;;4989011;28;20121;-63
2022/08/10 07:02:30;;;;;;;1.55;1.45;;;19.90;60.00;;;;;;4988572;28;20386;-64
2022/08/10 07:05:01;;;;;;;2.13;1.45;;;19.90;59.70;;;;;;4994790;28;20031;-62
2022/08/10 07:07:31;;;;;;;5.40;1.70;;;20.00;59.90;;;;;;4996115;28;20039;-64
2022/08/10 07:09:58;;;;;;;1.55;1.40;;;20.10;59.70;;;;;;4995177;28;20039;-64
2022/08/10 07:12:26;;;;;;;1.70;1.60;;;20.20;59.60;;;;;;4989372;28;20409;-62
2022/08/10 07:14:53;;;;;;;3.03;1.70;;;20.30;59.40;;;;;;4995960;28;20046;-61
2022/08/10 07:17:21;;;;;;;3.03;1.80;;;20.30;59.30;;;;;;4992411;28;20049;-62
2022/08/10 07:19:50;;;;;;;1.85;1.40;;;20.40;59.10;;;;;;4993352;28;20531;-62
2022/08/10 07:22:18;;;;;;;1.83;1.67;;;20.50;59.00;;;;;;4994382;28;20624;-64
2022/08/10 07:24:46;;;;;;;2.53;1.33;;;20.60;58.90;;;;;;4992460;28;20063;-63
2022/08/10 07:27:12;;;;;;;1.60;1.50;;;20.70;58.60;;;;;;4994080;28;20026;-64
2022/08/10 07:29:39;;;;;;;1.73;1.30;;;20.80;58.60;;;;;;4993595;28;20053;-64
2022/08/10 07:32:06;;;;;;;2.38;1.35;;;20.80;58.30;;;;;;4992802;28;20545;-62
2022/08/10 07:34:36;;;;;;;4.25;1.48;;;20.90;58.20;;;;;;4990193;28;20473;-64
2022/08/10 07:37:05;;;;;;;4.93;1.40;;;21.00;58.00;;;;;;4991619;28;20045;-64
2022/08/10 07:39:35;;;;;;;1.98;1.33;;;21.10;57.80;;;;;;4995233;28;20735;-63
2022/08/10 07:42:03;;;;;;;1.45;1.35;;;21.20;57.40;;;;;;4995119;28;20030;-64
2022/08/10 07:44:30;;;;;;;1.58;1.40;;;21.30;57.60;;;;;;4994015;28;20039;-63
2022/08/10 07:46:58;;;;;;;3.13;1.42;;;21.40;57.30;;;;;;4991550;28;20120;-64
2022/08/10 07:49:27;;;;;;;1.98;1.20;;;21.50;57.00;;;;;;4993895;28;20069;-63
2022/08/10 07:51:55;;;;;;;3.70;1.27;;;21.60;56.50;;;;;;4993051;28;20035;-63
2022/08/10 07:54:24;;;;;;;2.28;1.25;;;21.70;56.30;;;;;;4995667;28;20327;-64
2022/08/10 07:56:54;;;;;;;3.63;1.20;;;21.80;56.20;;;;;;4992404;28;20066;-63
2022/08/10 07:59:25;;;;;;;1.27;1.08;;;21.90;56.00;;;;;;4992403;28;20043;-64
2022/08/10 08:01:54;;;;;;;2.97;1.40;;;22.00;55.80;;;;;;4986345;28;20537;-63
2022/08/10 08:04:22;;;;;;;1.40;1.20;;;22.10;55.60;;;;;;4991195;28;20046;-62
2022/08/10 08:06:49;;;;;;;2.17;1.40;;;22.20;55.40;;;;;;4991806;28;20042;-64
2022/08/10 08:09:18;;;;;;;1.60;1.27;;;22.30;55.40;;;;;;4993281;28;20542;-63
2022/08/10 08:11:44;;;;;;;1.42;1.30;;;22.40;55.30;;;;;;4986348;28;20456;-64
2022/08/10 08:14:11;;;;;;;2.00;1.17;;;22.60;55.00;;;;;;4979036;28;20518;-63
2022/08/10 08:16:44;;;;;;;4.22;1.40;;;22.60;54.60;;;;;;4985145;28;20062;-62
2022/08/10 08:19:10;;;;;;;1.40;1.30;;;22.70;54.10;;;;;;4985510;28;20463;-64
2022/08/10 08:21:37;;;;;;;1.83;1.13;;;22.80;53.90;;;;;;4988620;28;20116;-64
2022/08/10 08:24:03;;;;;;;1.83;1.15;;;22.90;53.60;;;;;;4987898;28;20470;-64
2022/08/10 08:26:29;;;;;;;1.95;1.10;;;23.00;54.00;;;;;;4985971;28;20050;-64
2022/08/10 08:28:56;;;;;;;2.42;1.17;;;23.10;52.90;;;;;;4980356;28;20041;-64
2022/08/10 08:31:22;;;;;;;4.38;1.25;;;23.20;52.60;;;;;;4981255;28;20121;-64
2022/08/10 08:33:49;;;;;;;1.13;1.02;;;23.30;52.40;;;;;;4975441;28;20042;-64
2022/08/10 08:36:19;;;;;;;6.38;1.40;;;23.30;52.30;;;;;;4983458;28;20092;-63
2022/08/10 08:38:46;;;;;;;1.65;0.90;;;23.50;52.00;;;;;;4984519;28;20041;-64
2022/08/10 08:41:24;;;;;;;1.65;1.00;;;23.60;52.20;;;;;;4987656;28;20122;-64
2022/08/10 08:44:18;;;;;;;1.48;0.95;;;23.60;52.10;;;;;;4987646;28;20048;-63
2022/08/10 08:47:25;;;;;;;2.38;1.25;;;23.80;50.90;;;;;;4984778;28;20038;-62
2022/08/10 08:49:50;;;;;;;2.10;1.08;;;23.90;50.60;;;;;;4985720;28;20129;-61
2022/08/10 08:52:42;;;;;;;3.90;0.98;;;24.00;50.90;;;;;;4983379;28;20605;-63
2022/08/10 08:55:36;;;;;;;1.70;0.90;;;24.10;50.00;;;;;;4982288;28;20041;-64
2022/08/10 08:58:04;;;;;;;2.35;0.90;;;24.20;49.70;;;;;;4982200;28;20026;-63
2022/08/10 09:00:44;;;;;;;1.10;1.00;;;24.20;50.10;;;;;;4986579;28;20040;-63
2022/08/10 09:03:39;;;;;;;1.65;1.00;;;24.30;49.70;;;;;;4988902;28;20869;-62
2022/08/10 09:06:20;;;;;;;;;;;24.40;48.80;;;;;;4996176;28;20568;-64
2022/08/10 09:08:59;;;;;;;3.10;0.90;;;24.50;49.70;;;;;;4994865;28;19917;-61
2022/08/10 09:12:03;;;;;;;2.92;0.90;;;24.70;48.80;;;;;;4990554;28;21346;-63
2022/08/10 09:15:01;;;;;;;0.75;0.70;;;24.70;48.50;;;;;;4994630;28;20213;-62
2022/08/10 09:17:41;;;;;;;1.23;0.90;;;24.80;48.10;;;;;;4990026;28;20183;-62
2022/08/10 09:20:32;;;;;;;1.55;0.98;;;24.80;47.90;;;;;;4993206;28;20045;-63
2022/08/10 09:23:06;;;;;;;2.55;0.90;;;24.90;48.00;;;;;;4991854;28;20510;-64
2022/08/10 09:25:37;;;;;;;2.35;0.70;;;25.00;48.20;;;;;;4991971;28;20092;-63
2022/08/10 09:28:10;;;;;;;4.25;1.08;;;25.10;48.00;;;;;;4988446;28;20042;-63
2022/08/10 09:30:52;;;;;;;3.83;0.90;;;25.20;47.30;;;;;;4988583;28;20031;-64
2022/08/10 09:33:48;;;;;;;1.77;0.77;;;25.30;46.70;;;;;;4990876;28;20031;-63
2022/08/10 09:36:16;;;;;;;0.98;0.70;;;25.40;46.00;;;;;;4989743;28;20490;-64
2022/08/10 09:39:01;;;;;;;1.02;0.70;;;25.50;46.10;;;;;;4989746;28;20038;-63
2022/08/10 09:41:46;;;;;;;;;;;25.50;45.70;;;;;;4990265;28;20096;-64
2022/08/10 09:44:29;;;;;;;1.02;0.75;;;25.60;46.80;;;;;;4992855;28;20438;-63
2022/08/10 09:47:22;;;;;;;1.33;0.90;;;25.70;46.00;;;;;;5008527;28;20038;-63
2022/08/10 09:50:24;;;;;;;2.65;0.88;;;25.80;45.50;;;;;;5007609;28;20037;-64
2022/08/10 09:53:15;;;;;;;1.83;0.70;;;25.90;44.00;;;;;;5007546;28;20080;-63
2022/08/10 09:55:58;;;;;;;1.27;0.80;;;26.00;44.30;;;;;;5019209;28;20038;-64
2022/08/10 09:58:33;;;;;;;2.22;0.80;;;26.00;44.10;;;;;;5002300;28;20053;-64
2022/08/10 10:01:40;;;;;;;4.88;0.80;;;26.10;44.40;;;;;;5004619;28;20438;-62
2022/08/10 10:04:23;;;;;;;0.80;0.80;;;26.10;44.00;;;;;;5012388;28;20129;-64
2022/08/10 10:07:00;;;;;;;2.05;0.70;;;26.20;43.90;;;;;;5010437;28;20141;-63
2022/08/10 10:09:31;;;;;;;1.38;0.77;;;26.20;43.50;;;;;;5011556;28;20104;-64
2022/08/10 10:12:15;;;;;;;1.95;0.70;;;26.30;43.40;;;;;;5006852;28;20034;-64
2022/08/10 10:15:21;;;;;;;1.58;0.70;;;26.30;42.60;;;;;;5004723;28;20048;-64
2022/08/10 10:17:56;;;;;;;2.97;0.80;;;26.40;42.70;;;;;;4999711;28;20626;-63
2022/08/10 10:20:32;;;;;;;1.10;0.60;;;26.50;43.00;;;;;;5013059;28;20513;-63
2022/08/10 10:23:34;;;;;;;1.55;0.65;;;26.60;42.00;;;;;;5012456;28;20403;-64
2022/08/10 10:26:41;;;;;;;1.13;0.70;;;26.60;41.80;;;;;;5014464;28;20490;-64
2022/08/10 10:29:30;;;;;;;1.83;0.57;;;26.70;41.20;;;;;;5001666;28;20038;-63
2022/08/10 10:32:20;;;;;;;2.60;0.68;;;26.70;41.30;;;;;;5014721;28;20051;-64
2022/08/10 10:35:01;;;;;;;2.10;0.68;;;26.70;41.10;;;;;;5014782;28;20041;-64
2022/08/10 10:37:29;;;;;;;1.02;0.50;;;26.80;41.00;;;;;;5016632;28;20125;-63
2022/08/10 10:39:56;;;;;;;3.65;0.57;;;26.80;41.40;;;;;;5012106;28;20038;-64
2022/08/10 10:42:29;;;;;;;3.03;0.70;;;26.80;41.00;;;;;;5016659;28;20064;-62
2022/08/10 10:45:25;;;;;;;1.60;0.60;;;26.90;41.50;;;;;;5011861;28;20038;-64
2022/08/10 10:48:17;;;;;;;1.98;0.60;;;26.90;40.50;;;;;;5014123;28;20045;-62
2022/08/10 10:51:11;;;;;;;1.75;0.60;;;26.90;41.10;;;;;;4992692;28;20425;-62
2022/08/10 10:53:51;;;;;;;0.80;0.60;;;27.00;40.90;;;;;;5013098;28;20045;-64
2022/08/10 10:56:46;;;;;;;2.50;0.93;;;27.00;41.10;;;;;;5015982;28;20128;-63
2022/08/10 10:59:47;;;;;;;1.17;0.80;;;27.10;40.40;;;;;;5013303;28;20495;-62
2022/08/10 11:02:31;;;;;;;0.80;0.63;;;27.10;39.50;;;;;;5005809;28;20116;-63
2022/08/10 11:05:03;;;;;;;2.60;0.83;;;27.20;39.70;;;;;;5011937;28;20034;-63
2022/08/10 11:07:38;;;;;;;3.65;0.82;;;27.20;40.00;;;;;;5013009;28;20029;-63
2022/08/10 11:10:09;;;;;;;1.38;0.70;;;27.20;39.10;;;;;;5007426;28;20041;-63
2022/08/10 11:12:48;;;;;;;0.70;0.65;;;27.20;39.50;;;;;;5004131;28;20084;-63
2022/08/10 11:15:30;;;;;;;2.15;0.70;;;27.30;39.00;;;;;;5011217;28;20033;-62
2022/08/10 11:20:59;;;;;;;1.70;0.80;;;27.40;39.10;;;;;;5919825;23;21677;-63
2022/08/10 11:23:35;;;;;;;1.40;0.60;;;27.40;38.40;;;;;;4959750;28;20050;-64
2022/08/10 11:26:15;;;;;;;1.33;0.50;;;27.50;39.00;;;;;;4963211;28;20598;-64
2022/08/10 11:28:48;;;;;;;0.75;0.57;;;27.50;38.70;;;;;;4964447;28;20528;-62
2022/08/10 11:31:14;;;;;;;0.93;0.60;;;27.50;38.20;;;;;;4960491;28;20091;-64
2022/08/10 11:33:45;;;;;;;0.70;0.60;;;27.50;38.50;;;;;;4949273;28;20031;-64
2022/08/10 11:36:27;;;;;;;1.67;0.80;;;27.60;38.50;;;;;;4954596;28;20035;-63
2022/08/10 11:39:09;;;;;;;1.08;0.70;;;27.60;38.00;;;;;;4958358;28;20114;-63
2022/08/10 11:41:44;;;;;;;0.90;0.68;;;27.70;37.40;;;;;;4954212;28;20347;-62
2022/08/10 11:44:25;;;;;;;3.63;0.50;;;27.70;37.30;;;;;;4958589;28;20039;-63
2022/08/10 11:47:13;;;;;;;2.20;0.60;;;27.70;37.10;;;;;;4956121;28;20037;-64
2022/08/10 11:50:06;;;;;;;1.25;0.70;;;27.70;37.00;;;;;;4956491;28;20062;-63
2022/08/10 11:52:58;;;;;;;2.08;0.70;;;27.70;37.50;;;;;;4953894;28;20395;-64
2022/08/10 11:55:31;;;;;;;6.25;0.70;;;27.80;37.80;;;;;;4953905;28;20043;-64
2022/08/10 11:59:55;;;;;;;2.45;0.60;;;27.80;37.50;;;;;;4957893;28;20509;-64
2022/08/10 12:00:50;;;;;;;2.78;0.60;;;27.80;37.50;;;;;;4955310;28;20121;-64
2022/08/10 12:03:17;;;;;;;1.00;0.52;;;27.80;37.70;;;;;;4955793;28;20031;-63
2022/08/10 12:05:43;;;;;;;3.40;0.80;;;27.80;37.40;;;;;;4951192;28;20082;-63
2022/08/10 12:08:11;;;;;;;4.30;0.70;;;27.80;37.40;;;;;;4954795;28;20050;-64
2022/08/10 12:10:38;;;;;;;1.38;0.60;;;27.80;37.40;;;;;;4952463;28;20098;-63
2022/08/10 12:13:13;;;;;;;1.02;0.77;;;27.80;38.10;;;;;;4941426;28;20035;-63
2022/08/10 12:16:06;;;;;;;0.82;0.60;;;27.90;37.50;;;;;;4941617;28;20058;-63
2022/08/10 12:18:44;;;;;;;2.92;0.85;;;27.90;37.60;;;;;;4940407;28;20040;-64
2022/08/10 12:21:16;;;;;;;0.65;0.65;;;28.00;37.20;;;;;;4941044;28;20037;-64
2022/08/10 12:23:47;;;;;;;0.70;0.70;;;28.00;37.30;;;;;;4940657;28;20036;-62
2022/08/10 12:26:19;;;;;;;3.30;0.80;;;28.00;37.20;;;;;;4940903;28;20041;-64
2022/08/10 12:28:45;;;;;;;2.10;0.77;;;28.10;37.50;;;;;;4941214;28;20039;-64
2022/08/10 12:31:14;;;;;;;4.07;0.73;;;28.10;37.20;;;;;;4939928;28;20023;-63
2022/08/10 12:34:27;;;;;;;1.58;0.60;;;28.10;36.90;;;;;;4940197;29;20560;-63
2022/08/10 12:37:03;;;;;;;1.40;0.80;;;28.10;37.10;;;;;;4914702;28;20074;-63
2022/08/10 12:39:33;;;;;;;4.95;0.60;;;28.10;36.30;;;;;;4941310;28;20399;-63
2022/08/10 12:42:14;;;;;;;4.05;0.63;;;28.10;36.50;;;;;;4921894;29;20066;-66
2022/08/10 12:44:58;;;;;;;1.20;0.60;;;28.10;36.30;;;;;;4939701;28;20043;-64
2022/08/10 12:47:29;;;;;;;1.48;0.80;;;28.10;36.80;;;;;;4940069;28;20431;-63
2022/08/10 12:50:18;;;;;;;4.07;0.75;;;28.20;36.60;;;;;;4940403;29;20039;-63
2022/08/10 12:53:02;;;;;;;0.93;0.60;;;28.20;36.20;;;;;;4940475;28;20034;-63
2022/08/10 12:55:29;;;;;;;6.80;1.10;;;28.20;35.50;;;;;;4940828;28;20040;-65
2022/08/10 12:57:57;;;;;;;1.25;0.55;;;28.20;36.50;;;;;;4940541;29;20039;-65
2022/08/10 13:00:32;;;;;;;2.70;0.85;;;28.20;36.60;;;;;;4941051;28;20071;-63
2022/08/10 13:03:00;;;;;;;1.33;0.90;;;28.20;36.60;;;;;;4941420;28;20051;-62
2022/08/10 13:05:28;;;;;;;1.83;1.00;;;28.20;36.60;;;;;;4940505;28;20039;-63
2022/08/10 13:10:53;;;;;;;2.13;0.70;;;28.30;36.40;;;;;;4937972;29;20042;-63
2022/08/10 13:13:24;;;;;;;0.73;0.47;;;28.30;36.00;;;;;;4938595;28;20053;-63
2022/08/10 13:15:52;;;;;;;1.38;0.60;;;28.30;36.10;;;;;;4940240;28;20039;-63
2022/08/10 13:18:42;;;;;;;1.67;0.70;;;28.30;35.80;;;;;;4940395;29;20051;-66
2022/08/10 13:21:10;;;;;;;1.02;0.70;;;28.30;35.80;;;;;;4938684;29;20035;-65
2022/08/10 13:24:05;;;;;;;2.47;0.70;;;28.30;36.00;;;;;;4939838;28;20053;-64
2022/08/10 13:26:37;;;;;;;27.35;2.15;;;28.30;36.20;;;;;;4938739;28;20545;-63